Monday, January 26, 2015
04:23 UTC
  |  Log In   |  Register Free
Airport Search:

Fort Smith Regional Airport
(KFSM)

FAA data valid effective January 08, 2015 - March 05, 2015 (unless otherwise noted).

 
 
 
 
 
 
 
 
 
 
 
 
 
 

Current Aviation Weather for Fort Smith Regional Airport (KFSM)

The most recent METAR observation for KFSM was updated at: 0410
METAR Summary (Translated METAR)
KFSM
260353Z 33007KT 10SM BKN034 07/M01 A3010 RMK AO2 PK WND 33026/0313 SLP194 T00721006
KJSV
260355Z AUTO 35011G17KT 10SM CLR 06/00 A3011 RMK AO2
(22.2 nm NW from KFSM)
KRKR
260355Z AUTO 35003KT 10SM SCT039 07/M01 A3010 RMK AO2 T00661008
(22.6 nm SW from KFSM)
TAF Summary (Translated TAF)
KFSM
260247Z 2603/2624 34013G20KT P6SM BKN040 FM260600 32010KT P6SM OVC050 FM260900 27004KT P6SM SKC FM261600 27008KT P6SM SKC
  Airport Weather Conditions for KFSM

 Current Weather at FSM
45° F
Mostly Cloudy
Northwest winds at 8.1 mph
FSM NOAA Radar

Pressure: 30.10 in
Humidity: 58%
Wind: Northwest at 8.1 MPH (7 KT)
Dew Point: 30.9°F
Visibility: 10.00 mi


Airport Weather Forecast for KFSM

Translated METAR and TAF for KFSM
Translated METAR for KFSM (0424 UTC 26 January 2015)
found at http://aviationweather.gov/adds/metars/
 
METAR text: KFSM 260353Z 33007KT 10SM BKN034 07/M01 A3010 RMK AO2 PK WND 33026/0313 SLP194 T00721006
Conditions at: KFSM (FORT SMITH , AR, US) observed 0353 UTC 26 January 2015
Temperature: 7.2°C (45°F)
Dewpoint: -0.6°C (31°F) [RH = 58%]
Pressure (altimeter): 30.10 inches Hg (1019.4 mb)
[Sea-level pressure: 1019.4 mb]
Winds: from the NNW (330 degrees) at 8 MPH (7 knots; 3.6 m/s)
Visibility: 10 or more miles (16+ km)
Ceiling: 3400 feet AGL
Clouds: broken clouds at 3400 feet AGL
Weather: no significant weather observed at this time
Translated TAF for KFSM
Forecast for: KFSM (FORT SMITH , AR, US)
TAF Text: KFSM 252320Z 2600/2624 29018G28KT P6SM BKN050
Forecast period: 0000 to 0300 UTC 26 January 2015
Forecast type: FROM: standard forecast or significant change
Winds: from the WNW (290 degrees) at 21 MPH (18 knots; 9.4 m/s)
gusting to 32 MPH (28 knots; 14.6 m/s)
Visibility: 6 or more miles (10+ km)
Ceiling: 5000 feet AGL
Clouds: broken clouds at 5000 feet AGL
Weather: no significant weather forecast for this period
TAF Text: FM260300 32010KT P6SM OVC050
Forecast period: 0300 to 0900 UTC 26 January 2015
Forecast type: FROM: standard forecast or significant change
Winds: from the NW (320 degrees) at 12 MPH (10 knots; 5.2 m/s)
Visibility: 6 or more miles (10+ km)
Ceiling: 5000 feet AGL
Clouds: overcast cloud deck at 5000 feet AGL
Weather: no significant weather forecast for this period
TAF Text: FM260900 27004KT P6SM SKC
Forecast period: 0900 to 1600 UTC 26 January 2015
Forecast type: FROM: standard forecast or significant change
Winds: from the W (270 degrees) at 5 MPH (4 knots; 2.1 m/s)
Visibility: 6 or more miles (10+ km)
Clouds: clear skies
Weather: no significant weather forecast for this period
TAF Text: FM261600 27008KT P6SM SKC
Forecast period: 1600 UTC 26 January 2015 to 0000 UTC 27 January 2015
Forecast type: FROM: standard forecast or significant change
Winds: from the W (270 degrees) at 9 MPH (8 knots; 4.2 m/s)
Visibility: 6 or more miles (10+ km)
Clouds: clear skies
Weather: no significant weather forecast for this period

Find All Airport Services Find A Hotel Find A Rental Car Find A Golf Course Find A Restaurant $100 Hamburger



FBO's on the Field
FBO Company Facility Photos Services Transportation Aviation Fuel Prices: Prices include tax
Catering Weather Repair Courtesy Rental Type 100LL JetA JetA+ MOGAS 8087
 
TAC Air - FSM

This FBO has not yet been rated
FS:Independent
Last Updated: Jan-08
Login to update fuel prices
SS:
Contact TAC Air - FSMMore FBO Information
 
Add another FBO Facility Photos Catering Weather Repair Courtesy Rental Type 100LL JetA JetA+ MOGAS 8087
Services Transportation Aviation Fuel Prices: Prices include tax


model-print
model-print
model-print
model-print